sensor_id;sensor_type;location;lat;lon;timestamp;P1;durP1;ratioP1;P2;durP2;ratioP2
50757;SDS011;36732;47.980;11.652;2023-04-03T00:00:56;4.88;;;4.47;;
50757;SDS011;36732;47.980;11.652;2023-04-03T00:03:22;5.60;;;4.85;;
50757;SDS011;36732;47.980;11.652;2023-04-03T00:05:48;5.47;;;4.50;;
50757;SDS011;36732;47.980;11.652;2023-04-03T00:08:15;5.28;;;4.78;;
50757;SDS011;36732;47.980;11.652;2023-04-03T00:10:40;4.07;;;3.63;;
50757;SDS011;36732;47.980;11.652;2023-04-03T00:13:07;6.82;;;4.65;;
50757;SDS011;36732;47.980;11.652;2023-04-03T00:15:33;5.05;;;4.50;;
50757;SDS011;36732;47.980;11.652;2023-04-03T00:18:00;5.40;;;4.40;;
50757;SDS011;36732;47.980;11.652;2023-04-03T00:20:26;5.63;;;4.78;;
50757;SDS011;36732;47.980;11.652;2023-04-03T00:22:52;5.10;;;4.10;;
50757;SDS011;36732;47.980;11.652;2023-04-03T00:25:18;4.53;;;4.13;;
50757;SDS011;36732;47.980;11.652;2023-04-03T00:27:44;4.75;;;4.35;;
50757;SDS011;36732;47.980;11.652;2023-04-03T00:30:12;4.40;;;3.95;;
50757;SDS011;36732;47.980;11.652;2023-04-03T00:32:41;5.05;;;4.35;;
50757;SDS011;36732;47.980;11.652;2023-04-03T00:35:07;4.85;;;4.40;;
50757;SDS011;36732;47.980;11.652;2023-04-03T00:37:33;5.07;;;4.57;;
50757;SDS011;36732;47.980;11.652;2023-04-03T00:39:59;5.55;;;4.05;;
50757;SDS011;36732;47.980;11.652;2023-04-03T00:42:25;4.35;;;3.95;;
50757;SDS011;36732;47.980;11.652;2023-04-03T00:47:22;5.20;;;4.18;;
50757;SDS011;36732;47.980;11.652;2023-04-03T00:49:50;4.22;;;3.63;;
50757;SDS011;36732;47.980;11.652;2023-04-03T00:52:19;4.47;;;3.60;;
50757;SDS011;36732;47.980;11.652;2023-04-03T00:54:50;4.22;;;3.83;;
50757;SDS011;36732;47.980;11.652;2023-04-03T00:57:20;5.25;;;3.33;;
50757;SDS011;36732;47.980;11.652;2023-04-03T00:59:51;3.50;;;3.20;;
50757;SDS011;36732;47.980;11.652;2023-04-03T01:02:23;3.53;;;3.22;;
50757;SDS011;36732;47.980;11.652;2023-04-03T01:04:49;3.35;;;3.05;;
50757;SDS011;36732;47.980;11.652;2023-04-03T01:07:15;3.95;;;3.30;;
50757;SDS011;36732;47.980;11.652;2023-04-03T01:09:46;3.58;;;3.22;;
50757;SDS011;36732;47.980;11.652;2023-04-03T01:12:18;3.28;;;2.97;;
50757;SDS011;36732;47.980;11.652;2023-04-03T01:14:51;3.65;;;3.20;;
50757;SDS011;36732;47.980;11.652;2023-04-03T01:17:45;4.15;;;3.50;;
50757;SDS011;36732;47.980;11.652;2023-04-03T01:25:34;3.40;;;2.95;;
50757;SDS011;36732;47.980;11.652;2023-04-03T01:28:22;3.25;;;3.00;;
50757;SDS011;36732;47.980;11.652;2023-04-03T01:33:33;3.50;;;3.20;;
50757;SDS011;36732;47.980;11.652;2023-04-03T01:36:00;3.85;;;3.45;;
50757;SDS011;36732;47.980;11.652;2023-04-03T01:38:26;3.53;;;3.22;;
50757;SDS011;36732;47.980;11.652;2023-04-03T01:40:52;3.70;;;3.40;;
50757;SDS011;36732;47.980;11.652;2023-04-03T01:43:18;4.43;;;3.78;;
50757;SDS011;36732;47.980;11.652;2023-04-03T01:45:44;3.20;;;2.90;;
50757;SDS011;36732;47.980;11.652;2023-04-03T01:48:12;3.83;;;3.22;;
50757;SDS011;36732;47.980;11.652;2023-04-03T01:50:38;3.65;;;3.35;;
50757;SDS011;36732;47.980;11.652;2023-04-03T01:53:04;3.72;;;3.35;;
50757;SDS011;36732;47.980;11.652;2023-04-03T01:55:30;3.47;;;3.17;;
50757;SDS011;36732;47.980;11.652;2023-04-03T01:57:55;4.40;;;3.30;;
50757;SDS011;36732;47.980;11.652;2023-04-03T02:00:21;3.60;;;3.10;;
50757;SDS011;36732;47.980;11.652;2023-04-03T02:02:47;4.03;;;3.40;;
50757;SDS011;36732;47.980;11.652;2023-04-03T02:05:13;4.22;;;3.47;;
50757;SDS011;36732;47.980;11.652;2023-04-03T02:07:38;4.05;;;3.65;;
50757;SDS011;36732;47.980;11.652;2023-04-03T02:10:04;3.40;;;3.10;;
50757;SDS011;36732;47.980;11.652;2023-04-03T02:12:31;3.97;;;3.50;;
50757;SDS011;36732;47.980;11.652;2023-04-03T02:14:56;3.83;;;3.50;;
50757;SDS011;36732;47.980;11.652;2023-04-03T02:17:22;3.58;;;3.28;;
50757;SDS011;36732;47.980;11.652;2023-04-03T02:19:48;3.85;;;3.40;;
50757;SDS011;36732;47.980;11.652;2023-04-03T02:22:13;3.95;;;3.55;;
50757;SDS011;36732;47.980;11.652;2023-04-03T02:24:39;3.58;;;3.28;;
50757;SDS011;36732;47.980;11.652;2023-04-03T02:27:06;3.47;;;3.17;;
50757;SDS011;36732;47.980;11.652;2023-04-03T02:29:31;4.05;;;3.72;;
50757;SDS011;36732;47.980;11.652;2023-04-03T02:31:57;3.60;;;3.30;;
50757;SDS011;36732;47.980;11.652;2023-04-03T02:34:23;4.20;;;3.80;;
50757;SDS011;36732;47.980;11.652;2023-04-03T02:36:49;5.50;;;3.90;;
50757;SDS011;36732;47.980;11.652;2023-04-03T02:39:15;3.97;;;3.58;;
50757;SDS011;36732;47.980;11.652;2023-04-03T02:41:41;4.35;;;3.78;;
50757;SDS011;36732;47.980;11.652;2023-04-03T02:44:09;4.18;;;3.78;;
50757;SDS011;36732;47.980;11.652;2023-04-03T02:46:36;4.15;;;3.75;;
50757;SDS011;36732;47.980;11.652;2023-04-03T02:49:02;4.40;;;3.85;;
50757;SDS011;36732;47.980;11.652;2023-04-03T02:51:28;4.97;;;3.83;;
50757;SDS011;36732;47.980;11.652;2023-04-03T02:53:54;3.88;;;3.50;;
50757;SDS011;36732;47.980;11.652;2023-04-03T02:56:19;3.95;;;3.58;;
50757;SDS011;36732;47.980;11.652;2023-04-03T02:58:46;3.80;;;3.40;;
50757;SDS011;36732;47.980;11.652;2023-04-03T03:01:11;3.85;;;3.38;;
50757;SDS011;36732;47.980;11.652;2023-04-03T03:03:37;4.20;;;3.67;;
50757;SDS011;36732;47.980;11.652;2023-04-03T03:06:04;4.78;;;4.20;;
50757;SDS011;36732;47.980;11.652;2023-04-03T03:08:32;4.00;;;3.60;;
50757;SDS011;36732;47.980;11.652;2023-04-03T03:10:59;4.50;;;3.90;;
50757;SDS011;36732;47.980;11.652;2023-04-03T03:13:25;4.15;;;3.60;;
50757;SDS011;36732;47.980;11.652;2023-04-03T03:15:51;4.03;;;3.63;;
50757;SDS011;36732;47.980;11.652;2023-04-03T03:18:17;3.70;;;3.40;;
50757;SDS011;36732;47.980;11.652;2023-04-03T03:20:43;3.63;;;3.08;;
50757;SDS011;36732;47.980;11.652;2023-04-03T03:23:08;5.50;;;3.95;;
50757;SDS011;36732;47.980;11.652;2023-04-03T03:25:40;3.70;;;3.33;;
50757;SDS011;36732;47.980;11.652;2023-04-03T03:28:06;4.03;;;3.67;;
50757;SDS011;36732;47.980;11.652;2023-04-03T03:30:33;5.07;;;4.00;;
50757;SDS011;36732;47.980;11.652;2023-04-03T03:33:00;5.30;;;4.65;;
50757;SDS011;36732;47.980;11.652;2023-04-03T03:35:26;4.82;;;4.35;;
50757;SDS011;36732;47.980;11.652;2023-04-03T03:37:51;4.78;;;4.32;;
50757;SDS011;36732;47.980;11.652;2023-04-03T03:40:17;5.07;;;4.25;;
50757;SDS011;36732;47.980;11.652;2023-04-03T03:42:43;4.43;;;4.03;;
50757;SDS011;36732;47.980;11.652;2023-04-03T03:45:09;5.13;;;3.83;;
50757;SDS011;36732;47.980;11.652;2023-04-03T03:47:35;5.18;;;4.43;;
50757;SDS011;36732;47.980;11.652;2023-04-03T03:50:01;4.78;;;4.28;;
50757;SDS011;36732;47.980;11.652;2023-04-03T03:52:27;5.60;;;4.32;;
50757;SDS011;36732;47.980;11.652;2023-04-03T03:54:54;5.05;;;4.55;;
50757;SDS011;36732;47.980;11.652;2023-04-03T03:57:21;5.57;;;4.68;;
50757;SDS011;36732;47.980;11.652;2023-04-03T03:59:47;4.40;;;4.00;;
50757;SDS011;36732;47.980;11.652;2023-04-03T04:02:13;5.45;;;4.40;;
50757;SDS011;36732;47.980;11.652;2023-04-03T04:04:39;4.50;;;4.10;;
50757;SDS011;36732;47.980;11.652;2023-04-03T04:07:05;5.05;;;3.90;;
50757;SDS011;36732;47.980;11.652;2023-04-03T04:09:31;4.72;;;3.85;;
50757;SDS011;36732;47.980;11.652;2023-04-03T04:11:57;4.53;;;3.90;;
50757;SDS011;36732;47.980;11.652;2023-04-03T04:14:22;4.05;;;3.65;;
50757;SDS011;36732;47.980;11.652;2023-04-03T04:16:48;5.38;;;4.05;;
50757;SDS011;36732;47.980;11.652;2023-04-03T04:19:14;3.60;;;3.30;;
50757;SDS011;36732;47.980;11.652;2023-04-03T04:21:40;4.30;;;3.63;;
50757;SDS011;36732;47.980;11.652;2023-04-03T04:24:06;4.28;;;3.88;;
50757;SDS011;36732;47.980;11.652;2023-04-03T04:26:33;3.92;;;3.45;;
50757;SDS011;36732;47.980;11.652;2023-04-03T04:28:59;4.10;;;3.72;;
50757;SDS011;36732;47.980;11.652;2023-04-03T04:31:25;4.20;;;3.70;;
50757;SDS011;36732;47.980;11.652;2023-04-03T04:33:52;5.25;;;3.80;;
50757;SDS011;36732;47.980;11.652;2023-04-03T04:36:18;4.20;;;3.75;;
50757;SDS011;36732;47.980;11.652;2023-04-03T04:38:44;4.43;;;3.63;;
50757;SDS011;36732;47.980;11.652;2023-04-03T04:41:10;3.65;;;3.33;;
50757;SDS011;36732;47.980;11.652;2023-04-03T04:43:36;5.43;;;4.03;;
50757;SDS011;36732;47.980;11.652;2023-04-03T04:46:05;4.20;;;3.40;;
50757;SDS011;36732;47.980;11.652;2023-04-03T04:48:33;3.92;;;3.22;;
50757;SDS011;36732;47.980;11.652;2023-04-03T04:51:00;4.32;;;3.90;;
50757;SDS011;36732;47.980;11.652;2023-04-03T04:53:26;3.50;;;3.17;;
50757;SDS011;36732;47.980;11.652;2023-04-03T04:55:52;4.55;;;3.70;;
50757;SDS011;36732;47.980;11.652;2023-04-03T04:58:18;4.10;;;3.70;;
50757;SDS011;36732;47.980;11.652;2023-04-03T05:00:44;4.68;;;3.28;;
50757;SDS011;36732;47.980;11.652;2023-04-03T05:03:10;4.20;;;3.75;;
50757;SDS011;36732;47.980;11.652;2023-04-03T05:05:36;3.85;;;3.50;;
50757;SDS011;36732;47.980;11.652;2023-04-03T05:08:02;4.30;;;3.90;;
50757;SDS011;36732;47.980;11.652;2023-04-03T05:10:28;3.78;;;3.47;;
50757;SDS011;36732;47.980;11.652;2023-04-03T05:12:54;4.47;;;3.70;;
50757;SDS011;36732;47.980;11.652;2023-04-03T05:15:20;3.88;;;3.35;;
50757;SDS011;36732;47.980;11.652;2023-04-03T05:17:46;3.97;;;3.60;;
50757;SDS011;36732;47.980;11.652;2023-04-03T05:20:11;4.93;;;3.70;;
50757;SDS011;36732;47.980;11.652;2023-04-03T05:22:37;4.63;;;3.80;;
50757;SDS011;36732;47.980;11.652;2023-04-03T05:25:04;3.88;;;3.47;;
50757;SDS011;36732;47.980;11.652;2023-04-03T05:27:30;3.95;;;3.47;;
50757;SDS011;36732;47.980;11.652;2023-04-03T05:29:56;3.92;;;3.30;;
50757;SDS011;36732;47.980;11.652;2023-04-03T05:32:22;3.95;;;3.15;;
50757;SDS011;36732;47.980;11.652;2023-04-03T05:34:50;4.57;;;3.63;;
50757;SDS011;36732;47.980;11.652;2023-04-03T05:37:16;4.05;;;3.30;;
50757;SDS011;36732;47.980;11.652;2023-04-03T05:39:42;3.72;;;3.22;;
50757;SDS011;36732;47.980;11.652;2023-04-03T05:42:08;4.13;;;3.53;;
50757;SDS011;36732;47.980;11.652;2023-04-03T05:44:34;4.20;;;3.45;;
50757;SDS011;36732;47.980;11.652;2023-04-03T05:47:00;3.78;;;3.38;;
50757;SDS011;36732;47.980;11.652;2023-04-03T05:49:26;4.05;;;3.35;;
50757;SDS011;36732;47.980;11.652;2023-04-03T05:51:51;3.53;;;3.17;;
50757;SDS011;36732;47.980;11.652;2023-04-03T05:54:19;4.57;;;3.20;;
50757;SDS011;36732;47.980;11.652;2023-04-03T05:56:49;3.58;;;2.83;;
50757;SDS011;36732;47.980;11.652;2023-04-03T05:59:16;3.63;;;3.33;;
50757;SDS011;36732;47.980;11.652;2023-04-03T06:01:43;4.00;;;3.60;;
50757;SDS011;36732;47.980;11.652;2023-04-03T06:04:09;3.60;;;3.10;;
50757;SDS011;36732;47.980;11.652;2023-04-03T06:06:42;3.67;;;3.05;;
50757;SDS011;36732;47.980;11.652;2023-04-03T06:09:19;2.97;;;2.72;;
50757;SDS011;36732;47.980;11.652;2023-04-03T06:11:47;3.90;;;3.00;;
50757;SDS011;36732;47.980;11.652;2023-04-03T06:14:13;3.90;;;2.75;;
50757;SDS011;36732;47.980;11.652;2023-04-03T06:16:39;5.63;;;3.30;;
50757;SDS011;36732;47.980;11.652;2023-04-03T06:19:05;3.78;;;2.70;;
50757;SDS011;36732;47.980;11.652;2023-04-03T06:21:32;3.72;;;3.35;;
50757;SDS011;36732;47.980;11.652;2023-04-03T06:23:58;3.25;;;2.95;;
50757;SDS011;36732;47.980;11.652;2023-04-03T06:26:24;3.03;;;2.72;;
50757;SDS011;36732;47.980;11.652;2023-04-03T06:28:50;2.97;;;2.78;;
50757;SDS011;36732;47.980;11.652;2023-04-03T06:31:15;3.67;;;2.90;;
50757;SDS011;36732;47.980;11.652;2023-04-03T06:33:41;3.08;;;2.78;;
50757;SDS011;36732;47.980;11.652;2023-04-03T06:36:09;2.95;;;2.60;;
50757;SDS011;36732;47.980;11.652;2023-04-03T06:38:36;2.90;;;2.60;;
50757;SDS011;36732;47.980;11.652;2023-04-03T06:41:02;3.92;;;3.10;;
50757;SDS011;36732;47.980;11.652;2023-04-03T06:43:28;2.40;;;2.20;;
50757;SDS011;36732;47.980;11.652;2023-04-03T06:45:56;3.10;;;2.60;;
50757;SDS011;36732;47.980;11.652;2023-04-03T06:48:22;3.03;;;2.40;;
50757;SDS011;36732;47.980;11.652;2023-04-03T06:50:48;3.33;;;2.90;;
50757;SDS011;36732;47.980;11.652;2023-04-03T06:53:13;2.67;;;2.45;;
50757;SDS011;36732;47.980;11.652;2023-04-03T06:55:39;2.90;;;2.63;;
50757;SDS011;36732;47.980;11.652;2023-04-03T06:58:06;4.47;;;2.70;;
50757;SDS011;36732;47.980;11.652;2023-04-03T07:00:32;4.22;;;2.78;;
50757;SDS011;36732;47.980;11.652;2023-04-03T07:02:58;3.20;;;2.70;;
50757;SDS011;36732;47.980;11.652;2023-04-03T07:05:24;3.45;;;2.80;;
50757;SDS011;36732;47.980;11.652;2023-04-03T07:07:51;3.67;;;2.70;;
50757;SDS011;36732;47.980;11.652;2023-04-03T07:10:17;3.15;;;2.60;;
50757;SDS011;36732;47.980;11.652;2023-04-03T07:12:43;4.25;;;2.25;;
50757;SDS011;36732;47.980;11.652;2023-04-03T07:15:09;2.50;;;2.30;;
50757;SDS011;36732;47.980;11.652;2023-04-03T07:17:37;3.85;;;2.92;;
50757;SDS011;36732;47.980;11.652;2023-04-03T07:20:04;3.10;;;2.30;;
50757;SDS011;36732;47.980;11.652;2023-04-03T07:22:30;2.50;;;2.30;;
50757;SDS011;36732;47.980;11.652;2023-04-03T07:24:56;2.88;;;2.33;;
50757;SDS011;36732;47.980;11.652;2023-04-03T07:27:23;2.92;;;2.30;;
50757;SDS011;36732;47.980;11.652;2023-04-03T07:29:50;2.72;;;2.10;;
50757;SDS011;36732;47.980;11.652;2023-04-03T07:32:16;3.05;;;2.40;;
50757;SDS011;36732;47.980;11.652;2023-04-03T07:34:42;3.38;;;2.70;;
50757;SDS011;36732;47.980;11.652;2023-04-03T07:37:08;3.40;;;2.55;;
50757;SDS011;36732;47.980;11.652;2023-04-03T07:39:35;2.75;;;2.47;;
50757;SDS011;36732;47.980;11.652;2023-04-03T07:42:01;3.85;;;2.60;;
50757;SDS011;36732;47.980;11.652;2023-04-03T07:44:27;5.28;;;2.30;;
50757;SDS011;36732;47.980;11.652;2023-04-03T07:46:53;2.50;;;2.15;;
50757;SDS011;36732;47.980;11.652;2023-04-03T07:49:22;3.08;;;2.08;;
50757;SDS011;36732;47.980;11.652;2023-04-03T07:51:49;2.65;;;2.40;;
50757;SDS011;36732;47.980;11.652;2023-04-03T07:54:15;3.88;;;2.15;;
50757;SDS011;36732;47.980;11.652;2023-04-03T07:56:41;3.35;;;2.47;;
50757;SDS011;36732;47.980;11.652;2023-04-03T07:59:08;2.97;;;2.60;;
50757;SDS011;36732;47.980;11.652;2023-04-03T08:01:35;2.60;;;2.40;;
50757;SDS011;36732;47.980;11.652;2023-04-03T08:04:01;2.47;;;2.28;;
50757;SDS011;36732;47.980;11.652;2023-04-03T08:06:27;3.53;;;2.63;;
50757;SDS011;36732;47.980;11.652;2023-04-03T08:08:54;2.58;;;2.38;;
50757;SDS011;36732;47.980;11.652;2023-04-03T08:11:20;3.53;;;2.53;;
50757;SDS011;36732;47.980;11.652;2023-04-03T08:13:47;2.67;;;2.47;;
50757;SDS011;36732;47.980;11.652;2023-04-03T08:16:15;3.53;;;2.47;;
50757;SDS011;36732;47.980;11.652;2023-04-03T08:18:43;2.78;;;2.33;;
50757;SDS011;36732;47.980;11.652;2023-04-03T08:21:09;2.80;;;2.50;;
50757;SDS011;36732;47.980;11.652;2023-04-03T08:23:37;3.72;;;2.35;;
50757;SDS011;36732;47.980;11.652;2023-04-03T08:26:07;2.70;;;2.22;;
50757;SDS011;36732;47.980;11.652;2023-04-03T08:28:35;4.30;;;2.65;;
50757;SDS011;36732;47.980;11.652;2023-04-03T08:31:02;2.88;;;2.45;;
50757;SDS011;36732;47.980;11.652;2023-04-03T08:33:35;4.35;;;2.70;;
50757;SDS011;36732;47.980;11.652;2023-04-03T08:36:03;3.65;;;2.45;;
50757;SDS011;36732;47.980;11.652;2023-04-03T08:38:32;2.70;;;2.20;;
50757;SDS011;36732;47.980;11.652;2023-04-03T08:41:09;2.38;;;2.10;;
50757;SDS011;36732;47.980;11.652;2023-04-03T08:49:59;3.72;;;2.45;;
50757;SDS011;36732;47.980;11.652;2023-04-03T08:58:01;3.53;;;2.95;;
50757;SDS011;36732;47.980;11.652;2023-04-03T09:03:48;3.03;;;2.72;;
50757;SDS011;36732;47.980;11.652;2023-04-03T09:22:18;2.97;;;2.67;;
50757;SDS011;36732;47.980;11.652;2023-04-03T09:25:09;2.63;;;2.38;;
50757;SDS011;36732;47.980;11.652;2023-04-03T09:27:40;4.28;;;2.70;;
50757;SDS011;36732;47.980;11.652;2023-04-03T09:30:17;3.75;;;2.53;;
50757;SDS011;36732;47.980;11.652;2023-04-03T09:32:51;6.05;;;2.70;;
50757;SDS011;36732;47.980;11.652;2023-04-03T09:37:53;3.28;;;2.78;;
50757;SDS011;36732;47.980;11.652;2023-04-03T09:42:51;2.75;;;2.17;;
50757;SDS011;36732;47.980;11.652;2023-04-03T09:45:23;3.35;;;2.42;;
50757;SDS011;36732;47.980;11.652;2023-04-03T09:50:37;2.63;;;2.38;;
50757;SDS011;36732;47.980;11.652;2023-04-03T09:56:25;2.75;;;2.17;;
50757;SDS011;36732;47.980;11.652;2023-04-03T09:59:06;2.88;;;2.63;;
50757;SDS011;36732;47.980;11.652;2023-04-03T10:01:41;4.43;;;3.38;;
50757;SDS011;36732;47.980;11.652;2023-04-03T10:04:22;2.80;;;2.20;;
50757;SDS011;36732;47.980;11.652;2023-04-03T10:06:49;3.17;;;2.55;;
50757;SDS011;36732;47.980;11.652;2023-04-03T10:09:23;3.15;;;2.35;;
50757;SDS011;36732;47.980;11.652;2023-04-03T10:12:11;2.22;;;2.03;;
50757;SDS011;36732;47.980;11.652;2023-04-03T10:14:40;2.13;;;1.92;;
50757;SDS011;36732;47.980;11.652;2023-04-03T10:17:30;2.45;;;2.22;;
50757;SDS011;36732;47.980;11.652;2023-04-03T10:23:16;2.60;;;2.15;;
50757;SDS011;36732;47.980;11.652;2023-04-03T10:28:57;2.90;;;2.60;;
50757;SDS011;36732;47.980;11.652;2023-04-03T10:31:57;2.60;;;2.30;;
50757;SDS011;36732;47.980;11.652;2023-04-03T10:34:45;3.78;;;2.67;;
50757;SDS011;36732;47.980;11.652;2023-04-03T10:37:23;2.75;;;2.28;;
50757;SDS011;36732;47.980;11.652;2023-04-03T10:43:33;3.33;;;2.40;;
50757;SDS011;36732;47.980;11.652;2023-04-03T10:46:27;2.63;;;2.20;;
50757;SDS011;36732;47.980;11.652;2023-04-03T10:49:08;2.35;;;2.13;;
50757;SDS011;36732;47.980;11.652;2023-04-03T10:51:52;2.70;;;2.50;;
50757;SDS011;36732;47.980;11.652;2023-04-03T10:54:56;2.85;;;2.47;;
50757;SDS011;36732;47.980;11.652;2023-04-03T10:57:49;3.55;;;2.03;;
50757;SDS011;36732;47.980;11.652;2023-04-03T11:00:19;3.55;;;2.05;;
50757;SDS011;36732;47.980;11.652;2023-04-03T11:03:00;2.90;;;2.38;;
50757;SDS011;36732;47.980;11.652;2023-04-03T11:05:37;2.45;;;2.15;;
50757;SDS011;36732;47.980;11.652;2023-04-03T11:08:12;2.72;;;2.00;;
50757;SDS011;36732;47.980;11.652;2023-04-03T11:10:51;3.90;;;2.27;;
50757;SDS011;36732;47.980;11.652;2023-04-03T11:13:45;2.95;;;2.38;;
50757;SDS011;36732;47.980;11.652;2023-04-03T11:16:19;3.40;;;2.20;;
50757;SDS011;36732;47.980;11.652;2023-04-03T11:18:56;3.95;;;2.30;;
50757;SDS011;36732;47.980;11.652;2023-04-03T11:21:48;2.33;;;2.13;;
50757;SDS011;36732;47.980;11.652;2023-04-03T11:24:42;2.65;;;2.13;;
50757;SDS011;36732;47.980;11.652;2023-04-03T11:27:24;2.58;;;1.88;;
50757;SDS011;36732;47.980;11.652;2023-04-03T11:29:52;2.55;;;1.65;;
50757;SDS011;36732;47.980;11.652;2023-04-03T11:32:36;2.60;;;1.38;;
50757;SDS011;36732;47.980;11.652;2023-04-03T11:35:23;1.75;;;1.50;;
50757;SDS011;36732;47.980;11.652;2023-04-03T11:37:51;1.55;;;1.15;;
50757;SDS011;36732;47.980;11.652;2023-04-03T11:42:55;1.88;;;1.67;;
50757;SDS011;36732;47.980;11.652;2023-04-03T11:45:34;3.08;;;2.22;;
50757;SDS011;36732;47.980;11.652;2023-04-03T11:50:54;2.35;;;2.00;;
50757;SDS011;36732;47.980;11.652;2023-04-03T11:56:03;4.38;;;2.78;;
50757;SDS011;36732;47.980;11.652;2023-04-03T12:04:21;5.25;;;3.65;;
50757;SDS011;36732;47.980;11.652;2023-04-03T12:06:52;4.95;;;3.22;;
50757;SDS011;36732;47.980;11.652;2023-04-03T12:12:27;7.63;;;4.60;;
50757;SDS011;36732;47.980;11.652;2023-04-03T12:15:17;8.95;;;5.10;;
50757;SDS011;36732;47.980;11.652;2023-04-03T12:17:51;5.72;;;3.70;;
50757;SDS011;36732;47.980;11.652;2023-04-03T12:23:27;2.42;;;2.20;;
50757;SDS011;36732;47.980;11.652;2023-04-03T12:44:07;3.22;;;2.58;;
50757;SDS011;36732;47.980;11.652;2023-04-03T12:46:48;3.10;;;1.83;;
50757;SDS011;36732;47.980;11.652;2023-04-03T12:51:51;2.47;;;1.80;;
50757;SDS011;36732;47.980;11.652;2023-04-03T12:54:21;3.00;;;2.00;;
50757;SDS011;36732;47.980;11.652;2023-04-03T12:57:08;4.47;;;1.90;;
50757;SDS011;36732;47.980;11.652;2023-04-03T12:59:41;5.90;;;2.70;;
50757;SDS011;36732;47.980;11.652;2023-04-03T13:02:15;3.10;;;2.10;;
50757;SDS011;36732;47.980;11.652;2023-04-03T13:04:59;4.53;;;2.33;;
50757;SDS011;36732;47.980;11.652;2023-04-03T13:07:37;3.55;;;2.15;;
50757;SDS011;36732;47.980;11.652;2023-04-03T13:12:35;3.15;;;2.00;;
50757;SDS011;36732;47.980;11.652;2023-04-03T13:15:40;2.55;;;2.03;;
50757;SDS011;36732;47.980;11.652;2023-04-03T13:20:49;3.45;;;2.17;;
50757;SDS011;36732;47.980;11.652;2023-04-03T13:23:16;3.30;;;2.20;;
50757;SDS011;36732;47.980;11.652;2023-04-03T13:25:46;4.88;;;2.28;;
50757;SDS011;36732;47.980;11.652;2023-04-03T13:28:15;3.15;;;1.90;;
50757;SDS011;36732;47.980;11.652;2023-04-03T13:30:56;4.35;;;2.30;;
50757;SDS011;36732;47.980;11.652;2023-04-03T13:33:35;11.70;;;7.63;;
50757;SDS011;36732;47.980;11.652;2023-04-03T13:38:43;4.97;;;3.38;;
50757;SDS011;36732;47.980;11.652;2023-04-03T13:41:25;3.00;;;2.58;;
50757;SDS011;36732;47.980;11.652;2023-04-03T13:46:59;4.15;;;2.25;;
50757;SDS011;36732;47.980;11.652;2023-04-03T13:49:44;5.27;;;2.90;;
50757;SDS011;36732;47.980;11.652;2023-04-03T13:52:29;4.88;;;2.83;;
50757;SDS011;36732;47.980;11.652;2023-04-03T13:55:25;3.95;;;2.50;;
50757;SDS011;36732;47.980;11.652;2023-04-03T13:58:16;3.45;;;2.38;;
50757;SDS011;36732;47.980;11.652;2023-04-03T14:00:50;3.03;;;2.08;;
50757;SDS011;36732;47.980;11.652;2023-04-03T14:03:29;4.40;;;2.53;;
50757;SDS011;36732;47.980;11.652;2023-04-03T14:06:20;2.88;;;2.00;;
50757;SDS011;36732;47.980;11.652;2023-04-03T14:08:47;2.90;;;2.25;;
50757;SDS011;36732;47.980;11.652;2023-04-03T14:11:24;3.22;;;2.17;;
50757;SDS011;36732;47.980;11.652;2023-04-03T14:13:54;4.03;;;2.00;;
50757;SDS011;36732;47.980;11.652;2023-04-03T14:16:24;2.97;;;2.05;;
50757;SDS011;36732;47.980;11.652;2023-04-03T14:18:55;2.83;;;1.85;;
50757;SDS011;36732;47.980;11.652;2023-04-03T14:21:21;2.65;;;2.05;;
50757;SDS011;36732;47.980;11.652;2023-04-03T14:23:48;2.78;;;1.73;;
50757;SDS011;36732;47.980;11.652;2023-04-03T14:26:19;2.58;;;1.80;;
50757;SDS011;36732;47.980;11.652;2023-04-03T14:28:49;5.00;;;2.20;;
50757;SDS011;36732;47.980;11.652;2023-04-03T14:31:18;3.00;;;1.98;;
50757;SDS011;36732;47.980;11.652;2023-04-03T14:33:45;4.50;;;1.52;;
50757;SDS011;36732;47.980;11.652;2023-04-03T14:38:44;2.20;;;1.80;;
50757;SDS011;36732;47.980;11.652;2023-04-03T14:41:12;2.80;;;1.77;;
50757;SDS011;36732;47.980;11.652;2023-04-03T14:43:41;2.17;;;1.38;;
50757;SDS011;36732;47.980;11.652;2023-04-03T14:46:18;1.48;;;1.38;;
50757;SDS011;36732;47.980;11.652;2023-04-03T14:48:51;1.67;;;1.23;;
50757;SDS011;36732;47.980;11.652;2023-04-03T14:51:17;1.98;;;1.42;;
50757;SDS011;36732;47.980;11.652;2023-04-03T14:53:43;2.20;;;1.20;;
50757;SDS011;36732;47.980;11.652;2023-04-03T14:56:20;2.13;;;1.35;;
50757;SDS011;36732;47.980;11.652;2023-04-03T14:58:51;2.00;;;1.20;;
50757;SDS011;36732;47.980;11.652;2023-04-03T15:01:24;1.52;;;1.30;;
50757;SDS011;36732;47.980;11.652;2023-04-03T15:03:50;2.75;;;1.55;;
50757;SDS011;36732;47.980;11.652;2023-04-03T15:06:16;1.92;;;1.20;;
50757;SDS011;36732;47.980;11.652;2023-04-03T15:08:42;1.20;;;1.10;;
50757;SDS011;36732;47.980;11.652;2023-04-03T15:11:09;2.47;;;1.27;;
50757;SDS011;36732;47.980;11.652;2023-04-03T15:13:36;1.33;;;1.08;;
50757;SDS011;36732;47.980;11.652;2023-04-03T15:16:03;1.80;;;1.27;;
50757;SDS011;36732;47.980;11.652;2023-04-03T15:18:40;2.60;;;1.60;;
50757;SDS011;36732;47.980;11.652;2023-04-03T15:21:06;2.13;;;1.60;;
50757;SDS011;36732;47.980;11.652;2023-04-03T15:23:32;2.85;;;1.48;;
50757;SDS011;36732;47.980;11.652;2023-04-03T15:25:58;1.90;;;1.35;;
50757;SDS011;36732;47.980;11.652;2023-04-03T15:31:00;2.55;;;1.60;;
50757;SDS011;36732;47.980;11.652;2023-04-03T15:33:26;3.22;;;1.63;;
50757;SDS011;36732;47.980;11.652;2023-04-03T15:35:52;4.63;;;2.50;;
50757;SDS011;36732;47.980;11.652;2023-04-03T15:38:18;9.20;;;4.93;;
50757;SDS011;36732;47.980;11.652;2023-04-03T15:40:44;5.18;;;2.97;;
50757;SDS011;36732;47.980;11.652;2023-04-03T15:43:11;1.80;;;1.30;;
50757;SDS011;36732;47.980;11.652;2023-04-03T15:45:38;2.70;;;1.67;;
50757;SDS011;36732;47.980;11.652;2023-04-03T15:48:05;1.20;;;1.00;;
50757;SDS011;36732;47.980;11.652;2023-04-03T15:50:32;2.15;;;1.17;;
50757;SDS011;36732;47.980;11.652;2023-04-03T15:52:59;1.77;;;1.55;;
50757;SDS011;36732;47.980;11.652;2023-04-03T15:55:27;1.63;;;1.15;;
50757;SDS011;36732;47.980;11.652;2023-04-03T15:57:56;2.15;;;1.20;;
50757;SDS011;36732;47.980;11.652;2023-04-03T16:00:23;1.95;;;1.25;;
50757;SDS011;36732;47.980;11.652;2023-04-03T16:02:53;1.48;;;1.17;;
50757;SDS011;36732;47.980;11.652;2023-04-03T16:05:23;1.30;;;1.00;;
50757;SDS011;36732;47.980;11.652;2023-04-03T16:07:50;1.17;;;1.00;;
50757;SDS011;36732;47.980;11.652;2023-04-03T16:10:17;1.40;;;1.05;;
50757;SDS011;36732;47.980;11.652;2023-04-03T16:12:43;1.90;;;1.17;;
50757;SDS011;36732;47.980;11.652;2023-04-03T16:15:10;2.97;;;1.02;;
50757;SDS011;36732;47.980;11.652;2023-04-03T16:17:37;2.15;;;1.15;;
50757;SDS011;36732;47.980;11.652;2023-04-03T16:20:06;3.50;;;1.05;;
50757;SDS011;36732;47.980;11.652;2023-04-03T16:22:33;1.63;;;1.00;;
50757;SDS011;36732;47.980;11.652;2023-04-03T16:24:59;1.98;;;0.88;;
50757;SDS011;36732;47.980;11.652;2023-04-03T16:27:25;1.98;;;0.90;;
50757;SDS011;36732;47.980;11.652;2023-04-03T16:29:53;2.67;;;1.15;;
50757;SDS011;36732;47.980;11.652;2023-04-03T16:32:20;1.85;;;1.20;;
50757;SDS011;36732;47.980;11.652;2023-04-03T16:34:47;1.38;;;0.90;;
50757;SDS011;36732;47.980;11.652;2023-04-03T16:37:13;2.53;;;1.05;;
50757;SDS011;36732;47.980;11.652;2023-04-03T16:39:40;4.50;;;1.20;;
50757;SDS011;36732;47.980;11.652;2023-04-03T16:42:05;1.88;;;1.00;;
50757;SDS011;36732;47.980;11.652;2023-04-03T16:44:31;1.70;;;1.20;;
50757;SDS011;36732;47.980;11.652;2023-04-03T16:46:57;2.95;;;1.17;;